Terminal Aerodrome Forecast
Issued by NWS

Home | Current Version | Previous Version | Graphics & Text | Print | Product List | Glossary On
Versions: 1 2 3 4 5 6 7 8 9 10 11 12 13 14 15 16 17 18 19 20 21
000
FTUS43 KTOP 042100 AAB
TAFMHK
TAF AMD
KMHK 042102Z 0421/0518 18011KT P6SM VCTS SCT060CB
      TEMPO 0421/0423 VRB15G25KT 1SM +TSRA BR BKN040CB
     FM050700 16006KT P6SM SCT050 BKN120
     FM051600 18015G22KT P6SM SCT250=

USA.gov is the U.S. government's official web portal to all federal, state and local government web resources and services.